Time,TemperatureF,DewpointF,PressureIn,WindDirection,WindDirectionDegrees,WindSpeedMPH,WindSpeedGustMPH,Humidity,HourlyPrecipIn,Conditions,Clouds,dailyrainin,SoftwareType,DateUTC
2013-07-25 00:00:00,75.0,68.0,-100.00,NNE,13,1.0,7.0,79,0.00,,,-99.99,,2013-07-25 04:00:00,
2013-07-25 00:33:00,75.0,68.0,-100.00,NNE,13,1.0,7.0,79,0.00,,,-99.99,,2013-07-25 04:33:00,
2013-07-25 00:43:00,75.0,68.0,-100.00,NNE,13,1.0,7.0,79,0.00,,,-99.99,,2013-07-25 04:43:00,
2013-07-25 00:53:00,75.0,68.0,-100.00,NNE,13,1.0,7.0,79,0.00,,,-99.99,,2013-07-25 04:53:00,
2013-07-25 01:00:00,73.0,64.0,-100.00,North,352,5.0,13.0,73,0.00,,,-99.99,,2013-07-25 05:00:00,
2013-07-25 01:32:00,73.0,64.0,-100.00,North,352,5.0,13.0,73,0.00,,,-99.99,,2013-07-25 05:32:00,
2013-07-25 01:43:00,73.0,64.0,-100.00,North,352,5.0,13.0,73,0.00,,,-99.99,,2013-07-25 05:43:00,
2013-07-25 01:52:00,73.0,64.0,-100.00,North,352,5.0,13.0,73,0.00,,,-99.99,,2013-07-25 05:52:00,
2013-07-25 02:00:00,71.0,59.0,-100.00,NNE,29,6.0,12.0,68,0.00,,,-99.99,,2013-07-25 06:00:00,
2013-07-25 02:32:00,71.0,59.0,-100.00,NNE,29,6.0,12.0,68,0.00,,,-99.99,,2013-07-25 06:32:00,
2013-07-25 02:42:00,71.0,59.0,-100.00,NNE,29,6.0,12.0,68,0.00,,,-99.99,,2013-07-25 06:42:00,
2013-07-25 02:52:00,71.0,59.0,-100.00,NNE,29,6.0,12.0,68,0.00,,,-99.99,,2013-07-25 06:52:00,
2013-07-25 03:00:00,69.0,58.0,-100.00,NNE,18,6.0,16.0,70,0.00,,,-99.99,,2013-07-25 07:00:00,
2013-07-25 03:33:00,69.0,58.0,-100.00,NNE,18,6.0,16.0,70,0.00,,,-99.99,,2013-07-25 07:33:00,
2013-07-25 03:43:00,69.0,58.0,-100.00,NNE,18,6.0,16.0,70,0.00,,,-99.99,,2013-07-25 07:43:00,
2013-07-25 03:53:00,69.0,58.0,-100.00,NNE,18,6.0,16.0,70,0.00,,,-99.99,,2013-07-25 07:53:00,
2013-07-25 04:00:00,68.0,58.0,-100.00,ENE,68,3.0,17.0,72,0.00,,,-99.99,,2013-07-25 08:00:00,
2013-07-25 04:32:00,68.0,58.0,-100.00,ENE,68,3.0,17.0,72,0.00,,,-99.99,,2013-07-25 08:32:00,
2013-07-25 04:44:00,68.0,58.0,-100.00,ENE,68,3.0,17.0,72,0.00,,,-99.99,,2013-07-25 08:44:00,
2013-07-25 04:52:00,68.0,58.0,-100.00,ENE,68,3.0,17.0,72,0.00,,,-99.99,,2013-07-25 08:52:00,
2013-07-25 05:00:00,67.0,58.0,-100.00,NE,39,4.0,13.0,72,0.00,,,-99.99,,2013-07-25 09:00:00,
2013-07-25 05:43:00,67.0,58.0,-100.00,NE,39,4.0,13.0,72,0.00,,,-99.99,,2013-07-25 09:43:00,
2013-07-25 05:53:00,67.0,58.0,-100.00,NE,39,4.0,13.0,72,0.00,,,-99.99,,2013-07-25 09:53:00,
2013-07-25 06:00:00,67.0,59.0,-100.00,North,5,4.0,11.0,74,0.00,,,-99.99,,2013-07-25 10:00:00,
2013-07-25 06:32:00,67.0,59.0,-100.00,North,5,4.0,11.0,74,0.00,,,-99.99,,2013-07-25 10:32:00,
2013-07-25 06:43:00,67.0,59.0,-100.00,North,5,4.0,11.0,74,0.00,,,-99.99,,2013-07-25 10:43:00,
2013-07-25 06:53:00,67.0,59.0,-100.00,North,5,4.0,11.0,74,0.00,,,-99.99,,2013-07-25 10:53:00,
2013-07-25 07:00:00,65.0,60.0,-100.00,NNE,22,5.0,-999.0,83,-99.99,,,-99.99,,2013-07-25 11:00:00,
2013-07-25 07:32:00,65.0,60.0,-100.00,NNE,22,5.0,-999.0,83,-99.99,,,-99.99,,2013-07-25 11:32:00,
2013-07-25 07:43:00,65.0,60.0,-100.00,NNE,22,5.0,-999.0,83,-99.99,,,-99.99,,2013-07-25 11:43:00,
2013-07-25 07:52:00,65.0,60.0,-100.00,NNE,22,5.0,-999.0,83,-99.99,,,-99.99,,2013-07-25 11:52:00,
2013-07-25 08:00:00,64.0,61.0,-100.00,NNE,25,10.0,11.0,90,0.00,,,-99.99,,2013-07-25 12:00:00,
2013-07-25 08:32:00,64.0,61.0,-100.00,NNE,25,10.0,11.0,90,0.00,,,-99.99,,2013-07-25 12:32:00,
2013-07-25 08:45:00,64.0,61.0,-100.00,NNE,25,10.0,11.0,90,0.00,,,-99.99,,2013-07-25 12:45:00,
2013-07-25 08:53:00,64.0,61.0,-100.00,NNE,25,10.0,11.0,90,0.00,,,-99.99,,2013-07-25 12:53:00,
2013-07-25 09:00:00,66.0,63.0,-100.00,NE,51,5.0,11.0,89,0.00,,,-99.99,,2013-07-25 13:00:00,
2013-07-25 09:43:00,66.0,63.0,-100.00,NE,51,5.0,11.0,89,0.00,,,-99.99,,2013-07-25 13:43:00,
2013-07-25 09:53:00,66.0,63.0,-100.00,NE,51,5.0,11.0,89,0.00,,,-99.99,,2013-07-25 13:53:00,
2013-07-25 10:00:00,67.0,64.0,-100.00,NNW,336,6.0,11.0,91,0.00,,,-99.99,,2013-07-25 14:00:00,
2013-07-25 10:33:00,67.0,64.0,-100.00,NNW,336,6.0,11.0,91,0.00,,,-99.99,,2013-07-25 14:33:00,
2013-07-25 10:43:00,67.0,64.0,-100.00,NNW,336,6.0,11.0,91,0.00,,,-99.99,,2013-07-25 14:43:00,
2013-07-25 10:53:00,67.0,64.0,-100.00,NNW,336,6.0,11.0,91,0.00,,,-99.99,,2013-07-25 14:53:00,
2013-07-25 11:00:00,68.0,66.0,-100.00,NE,49,10.0,18.0,91,0.01,,,-99.99,,2013-07-25 15:00:00,
2013-07-25 11:33:00,68.0,66.0,-100.00,NE,49,10.0,18.0,91,0.01,,,-99.99,,2013-07-25 15:33:00,
2013-07-25 11:44:00,68.0,66.0,-100.00,NE,49,10.0,18.0,91,0.01,,,-99.99,,2013-07-25 15:44:00,
2013-07-25 11:53:00,68.0,66.0,-100.00,NE,49,10.0,18.0,91,0.01,,,-99.99,,2013-07-25 15:53:00,
2013-07-25 12:00:00,71.0,66.0,-100.00,NNE,24,6.0,23.0,86,0.00,,,-99.99,,2013-07-25 16:00:00,
2013-07-25 12:45:00,71.0,66.0,-100.00,NNE,24,6.0,23.0,86,0.00,,,-99.99,,2013-07-25 16:45:00,
2013-07-25 12:53:00,71.0,66.0,-100.00,NNE,24,6.0,23.0,86,0.00,,,-99.99,,2013-07-25 16:53:00,
2013-07-25 13:00:00,72.0,67.0,-100.00,NE,45,5.0,18.0,84,0.00,,,-99.99,,2013-07-25 17:00:00,
2013-07-25 13:43:00,72.0,67.0,-100.00,NE,45,5.0,18.0,84,0.00,,,-99.99,,2013-07-25 17:43:00,
2013-07-25 13:53:00,72.0,67.0,-100.00,NE,45,5.0,18.0,84,0.00,,,-99.99,,2013-07-25 17:53:00,
2013-07-25 14:00:00,72.0,66.0,-100.00,NE,47,16.0,21.0,81,0.00,,,-99.99,,2013-07-25 18:00:00,
2013-07-25 14:33:00,72.0,66.0,-100.00,NE,47,16.0,21.0,81,0.00,,,-99.99,,2013-07-25 18:33:00,
2013-07-25 14:43:00,72.0,66.0,-100.00,NE,47,16.0,21.0,81,0.00,,,-99.99,,2013-07-25 18:43:00,
2013-07-25 14:52:00,72.0,66.0,-100.00,NE,47,16.0,21.0,81,0.00,,,-99.99,,2013-07-25 18:52:00,
2013-07-25 15:00:00,73.0,67.0,-100.00,NE,49,4.0,-999.0,80,-99.99,,,-99.99,,2013-07-25 19:00:00,
2013-07-25 15:43:00,73.0,67.0,-100.00,NE,49,4.0,-999.0,80,-99.99,,,-99.99,,2013-07-25 19:43:00,
2013-07-25 15:53:00,73.0,67.0,-100.00,NE,49,4.0,-999.0,80,-99.99,,,-99.99,,2013-07-25 19:53:00,
2013-07-25 16:00:00,73.0,66.0,-100.00,NNE,31,8.0,16.0,80,0.00,,,-99.99,,2013-07-25 20:00:00,
2013-07-25 16:43:00,73.0,66.0,-100.00,NNE,31,8.0,16.0,80,0.00,,,-99.99,,2013-07-25 20:43:00,
2013-07-25 16:54:00,73.0,66.0,-100.00,NNE,31,8.0,16.0,80,0.00,,,-99.99,,2013-07-25 20:54:00,
2013-07-25 17:00:00,71.0,65.0,-100.00,NNE,26,8.0,16.0,81,0.00,,,-99.99,,2013-07-25 21:00:00,
2013-07-25 17:44:00,71.0,65.0,-100.00,NNE,26,8.0,16.0,81,0.00,,,-99.99,,2013-07-25 21:44:00,
2013-07-25 17:52:00,71.0,65.0,-100.00,NNE,26,8.0,16.0,81,0.00,,,-99.99,,2013-07-25 21:52:00,
2013-07-25 18:00:00,70.0,64.0,-100.00,ENE,63,3.0,16.0,82,0.00,,,-99.99,,2013-07-25 22:00:00,
2013-07-25 18:33:00,70.0,64.0,-100.00,ENE,63,3.0,16.0,82,0.00,,,-99.99,,2013-07-25 22:33:00,
2013-07-25 18:43:00,70.0,64.0,-100.00,ENE,63,3.0,16.0,82,0.00,,,-99.99,,2013-07-25 22:43:00,
2013-07-25 18:53:00,70.0,64.0,-100.00,ENE,63,3.0,16.0,82,0.00,,,-99.99,,2013-07-25 22:53:00,
2013-07-25 19:00:00,68.0,63.0,-100.00,NE,43,6.0,15.0,84,0.00,,,-99.99,,2013-07-25 23:00:00,
2013-07-25 19:32:00,68.0,63.0,-100.00,NE,43,6.0,15.0,84,0.00,,,-99.99,,2013-07-25 23:32:00,
2013-07-25 19:43:00,68.0,63.0,-100.00,NE,43,6.0,15.0,84,0.00,,,-99.99,,2013-07-25 23:43:00,
2013-07-25 19:52:00,68.0,63.0,-100.00,NE,43,6.0,15.0,84,0.00,,,-99.99,,2013-07-25 23:52:00,
2013-07-25 20:00:00,67.0,63.0,-100.00,NNE,21,8.0,18.0,85,0.00,,,-99.99,,2013-07-26 00:00:00,
2013-07-25 20:33:00,67.0,63.0,-100.00,NNE,21,8.0,18.0,85,0.00,,,-99.99,,2013-07-26 00:33:00,
2013-07-25 20:43:00,67.0,63.0,-100.00,NNE,21,8.0,18.0,85,0.00,,,-99.99,,2013-07-26 00:43:00,
2013-07-25 20:52:00,67.0,63.0,-100.00,NNE,21,8.0,18.0,85,0.00,,,-99.99,,2013-07-26 00:52:00,
2013-07-25 21:00:00,66.0,62.0,-100.00,NNE,13,5.0,15.0,87,0.00,,,-99.99,,2013-07-26 01:00:00,
2013-07-25 21:33:00,66.0,62.0,-100.00,NNE,13,5.0,15.0,87,0.00,,,-99.99,,2013-07-26 01:33:00,
2013-07-25 21:43:00,66.0,62.0,-100.00,NNE,13,5.0,15.0,87,0.00,,,-99.99,,2013-07-26 01:43:00,
2013-07-25 21:52:00,66.0,62.0,-100.00,NNE,13,5.0,15.0,87,0.00,,,-99.99,,2013-07-26 01:52:00,
2013-07-25 22:00:00,66.0,62.0,-100.00,North,8,8.0,15.0,86,0.00,,,-99.99,,2013-07-26 02:00:00,
2013-07-25 22:43:00,66.0,62.0,-100.00,North,8,8.0,15.0,86,0.00,,,-99.99,,2013-07-26 02:43:00,
2013-07-25 22:52:00,66.0,62.0,-100.00,North,8,8.0,15.0,86,0.00,,,-99.99,,2013-07-26 02:52:00,
2013-07-25 23:00:00,66.0,62.0,-100.00,NNE,31,5.0,17.0,87,0.00,,,-99.99,,2013-07-26 03:00:00,
2013-07-25 23:33:00,66.0,62.0,-100.00,NNE,31,5.0,17.0,87,0.00,,,-99.99,,2013-07-26 03:33:00,
2013-07-25 23:44:00,66.0,62.0,-100.00,NNE,31,5.0,17.0,87,0.00,,,-99.99,,2013-07-26 03:44:00,
2013-07-25 23:53:00,66.0,62.0,-100.00,NNE,31,5.0,17.0,87,0.00,,,-99.99,,2013-07-26 03:53:00,